Latest Weather Observations for Barimunya

IDW60801

Issued at 4:33 pm WST Friday 20 October 2017 (issued every 30 minutes, with the page automatically refreshed every 10 minutes)

About weather observations | Map of weather stations | Latest weather observations for WA | Other Formats
Station Details ID: 505053 Name: BARIMUNYA Lat: -22.67 Lon: 119.16 Height: 629.17 m
Data from the previous 72 hours. | See also: Recent months for locations in Western Australia
Date/Time
WST
Temp
°C
App
Temp
°C
Dew
Point
°C
Rel
Hum
%
Delta-T
°C
Wind Press
QNH
hPa
Press
MSL
hPa
Rain since
9am
mm
Dir  Spd
km/h
Gust
km/h
Spd
kts
Gust
kts
20/04:30pm 36.5 31.3 2.5 12 18.1 E 19 26 10 14 1016.2 1012.0 0.0
20/04:00pm 36.4 32.3 2.5 12 18.0 ENE 13 24 7 13 1016.2 1012.0 0.0
20/03:30pm 36.7 31.5 2.7 12 18.2 E 19 32 10 17 1016.2 1012.0 0.0
20/03:00pm 37.0 31.5 1.7 11 18.6 ENE 20 35 11 19 1016.3 1012.1 0.0
20/02:30pm 36.7 31.3 1.5 11 18.5 SE 19 33 10 18 1016.4 1012.2 0.0
20/02:00pm 37.4 31.9 2.0 11 18.8 E 20 32 11 17 1016.8 1012.7 0.0
20/01:30pm 35.8 30.1 0.8 11 18.1 E 20 30 11 16 1017.1 1013.0 0.0
20/01:00pm 36.2 30.2 1.1 11 18.3 ESE 22 33 12 18 1017.6 1013.4 0.0
20/12:30pm 35.4 29.1 1.7 12 17.6 ESE 24 35 13 19 1018.0 1013.8 0.0
20/12:00pm 35.1 28.4 3.6 14 16.9 ESE 28 41 15 22 1018.5 1014.4 0.0
20/11:30am 33.9 28.3 3.7 15 16.2 ESE 22 33 12 18 1019.1 1014.9 0.0
20/11:00am 32.3 26.6 5.0 18 14.8 ESE 24 32 13 17 1019.5 1015.3 0.0
20/10:30am 31.7 25.8 6.0 20 14.1 SE 26 33 14 18 1019.9 1015.8 0.0
20/10:00am 29.6 24.0 5.6 22 12.9 ESE 24 32 13 17 1020.2 1016.1 0.0
20/09:30am 28.6 23.1 6.1 24 12.2 ESE 24 32 13 17 1020.6 1016.5 0.0
20/09:00am 26.9 21.5 6.3 27 11.1 SE 24 32 13 17 1020.8 1016.6 0.0
20/08:30am 26.3 20.9 6.4 28 10.7 SE 24 33 13 18 1020.8 1016.6 0.0
20/08:00am 25.1 18.2 6.3 30 10.0 SE 32 43 17 23 1020.6 1016.5 0.0
20/07:30am 24.1 16.9 5.9 31 9.6 SE 33 41 18 22 1020.4 1016.3 0.0
20/07:00am 23.2 16.0 6.1 33 9.0 SE 33 43 18 23 1020.3 1016.2 0.0
20/06:30am 22.4 16.1 5.8 34 8.6 SE 28 37 15 20 1020.1 1016.0 0.0
20/06:00am 21.9 15.6 5.8 35 8.3 SE 28 35 15 19 1019.6 1015.4 0.0
20/05:30am 21.8 15.6 6.1 36 8.2 SE 28 37 15 20 1019.2 1015.0 0.0
20/05:00am 22.0 15.7 5.8 35 8.4 SE 28 35 15 19 1018.8 1014.7 0.0
20/04:30am 22.3 16.8 6.1 35 8.5 SE 24 35 13 19 1018.6 1014.5 0.0
20/04:00am 22.7 16.1 6.0 34 8.7 SE 30 39 16 21 1018.4 1014.3 0.0
20/03:30am 22.9 17.1 6.2 34 8.8 SE 26 37 14 20 1018.2 1014.0 0.0
20/03:00am 23.4 16.4 6.2 33 9.0 SE 32 44 17 24 1018.0 1013.8 0.0
20/02:30am 23.8 16.6 6.1 32 9.3 SE 33 44 18 24 1017.8 1013.6 0.0
20/02:01am 24.4 18.2 6.2 31 9.6 SE 28 46 15 25 1017.7 1013.5 0.0
20/02:00am 24.3 18.5 6.1 31 9.6 SE 26 39 14 21 1017.6 1013.4 0.0
20/01:30am 24.7 17.5 6.0 30 9.9 SE 33 46 18 25 1017.7 1013.5 0.0
20/01:00am 25.4 17.9 6.1 29 10.2 ESE 35 52 19 28 1017.9 1013.7 0.0
20/12:53am 25.5 18.4 5.7 28 10.5 SE 32 52 17 28 1017.8 1013.6 0.0
20/12:52am 25.5 18.4 5.7 28 10.5 SE 32 52 17 28 1017.8 - 0.0
20/12:30am 25.9 18.2 5.5 27 10.8 ESE 35 50 19 27 1017.9 1013.7 0.0
20/12:08am 26.3 19.0 5.3 26 11.1 ESE 33 54 18 29 1018.0 1013.8 0.0
20/12:07am 26.3 19.0 5.3 26 11.1 ESE 33 54 18 29 1018.0 - 0.0
20/12:00am 26.4 19.5 4.8 25 11.3 SE 30 43 16 23 1018.0 1013.8 0.0
 
Date/Time
WST
Temp
°C
App
Temp
°C
Dew
Point
°C
Rel
Hum
%
Delta-T
°C
Wind Press
QNH
hPa
Press
MSL
hPa
Rain since
9am
mm
Dir  Spd
km/h
Gust
km/h
Spd
kts
Gust
kts
19/11:53pm 26.4 19.9 4.8 25 11.3 ESE 28 46 15 25 1018.1 1013.9 0.0
19/11:52pm 26.4 19.9 4.8 25 11.3 ESE 28 46 15 25 1018.1 - 0.0
19/11:30pm 27.1 19.7 4.2 23 11.9 ESE 32 43 17 23 1018.3 1014.2 0.0
19/11:00pm 27.9 20.2 2.2 19 12.9 ESE 32 50 17 27 1018.4 1014.3 0.0
19/10:58pm 28.0 20.3 2.2 19 13.0 ESE 32 50 17 27 1018.4 1014.3 0.0
19/10:57pm 28.0 20.3 2.2 19 13.0 ESE 32 50 17 27 1018.4 - 0.0
19/10:30pm 28.1 21.4 1.6 18 13.2 SE 26 39 14 21 1018.5 1014.4 0.0
19/10:00pm 28.9 22.1 0.6 16 13.9 ESE 26 41 14 22 1018.4 1014.3 0.0
19/09:30pm 29.5 22.2 0.2 15 14.4 ESE 28 43 15 23 1018.4 1014.3 0.0
19/09:00pm 30.1 24.3 -0.3 14 14.9 ESE 20 33 11 18 1018.1 1013.9 0.0
19/08:30pm 29.9 25.0 -0.5 14 14.8 ESE 15 19 8 10 1017.9 1013.7 0.0
19/08:00pm 29.4 25.6 -0.9 14 14.6 E 9 15 5 8 1017.6 1013.4 0.0
19/07:30pm 30.0 26.5 -1.4 13 15.1 ESE 7 9 4 5 1017.2 1013.1 0.0
19/07:00pm 30.7 26.7 -1.9 12 15.6 ESE 9 11 5 6 1016.9 1012.8 0.0
19/06:30pm 32.0 28.0 -2.1 11 16.4 E 9 11 5 6 1016.4 1012.2 0.0
19/06:00pm 33.3 29.5 -1.1 11 17.0 ESE 9 11 5 6 1016.0 1011.8 0.0
19/05:30pm 34.2 30.3 -1.7 10 17.7 NNE 9 17 5 9 1015.5 1011.4 0.0
19/05:00pm 34.5 30.8 -2.9 9 18.1 ENE 7 15 4 8 1015.2 1011.0 0.0
19/04:30pm 34.9 31.8 -2.6 9 18.3 SSE 4 9 2 5 1015.1 1010.9 0.0
19/04:00pm 34.6 30.3 -1.4 10 17.8 NNE 11 20 6 11 1015.0 1010.8 0.0
19/03:30pm 35.1 30.9 -1.1 10 18.1 WNW 11 13 6 7 1014.9 1010.7 0.0
19/03:00pm 34.1 29.8 -1.8 10 17.6 S 11 22 6 12 1014.9 1010.7 0.0
19/02:30pm 33.7 30.1 -2.1 10 17.4 E 7 15 4 8 1015.2 1011.0 0.0
19/02:00pm 34.8 31.7 0.0 11 17.6 SSE 6 15 3 8 1015.5 1011.4 0.0
19/01:30pm 33.8 29.4 0.5 12 16.9 SW 13 17 7 9 1015.7 1011.5 0.0
19/01:00pm 32.6 29.0 0.6 13 16.2 SE 9 22 5 12 1016.1 1011.9 0.0
19/12:30pm 33.6 29.0 1.4 13 16.6 ESE 15 30 8 16 1016.5 1012.3 0.0
19/12:00pm 31.6 26.1 1.8 15 15.3 E 20 32 11 17 1017.0 1012.9 0.0
19/11:30am 32.4 25.3 1.5 14 15.8 SE 28 39 15 21 1017.6 1013.4 0.0
19/11:00am 30.2 23.5 1.6 16 14.5 ESE 26 39 14 21 1018.0 1013.8 0.0
19/10:30am 29.1 22.2 2.4 18 13.6 ESE 28 37 15 20 1018.2 1014.0 0.0
19/10:00am 28.4 21.4 1.8 18 13.3 ESE 28 41 15 22 1018.5 1014.4 0.0
19/09:30am 27.3 19.9 1.7 19 12.7 ESE 30 41 16 22 1018.7 1014.6 0.0
19/09:08am 27.1 19.1 1.5 19 12.7 SE 33 52 18 28 1018.8 1014.7 0.0
19/09:07am 27.1 19.1 1.5 19 12.7 ESE 33 52 18 28 1018.8 - 0.0
19/09:00am 26.6 18.2 1.8 20 12.3 SE 35 48 19 26 1018.7 1014.6 0.0
19/08:30am 25.8 17.4 1.8 21 11.8 SE 35 43 19 23 1018.6 1014.5 0.0
19/08:00am 25.0 17.2 1.8 22 11.4 SE 32 44 17 24 1018.7 1014.6 0.0
19/07:43am 24.4 16.6 1.9 23 11.0 SE 32 50 17 27 1018.5 1014.4 0.0
19/07:42am 24.4 16.6 1.9 23 11.0 SE 32 50 17 27 1018.5 - 0.0
19/07:30am 24.1 15.7 1.7 23 10.9 SE 35 46 19 25 1018.3 1014.2 0.0
19/07:00am 23.1 13.9 1.5 24 10.4 SE 39 50 21 27 1018.0 1013.8 0.0
19/06:40am 22.7 15.7 1.7 25 10.1 SE 28 46 15 25 1017.9 1013.7 0.0
19/06:39am 22.7 15.7 1.7 25 10.1 SE 28 46 15 25 1017.9 - 0.0
19/06:30am 22.3 15.2 1.3 25 10.0 SE 28 37 15 20 1017.8 1013.6 0.0
19/06:00am 21.1 16.1 1.4 27 9.3 SE 17 20 9 11 1017.4 1013.2 0.0
19/05:30am 20.5 15.5 1.4 28 9.0 SSE 17 20 9 11 1017.0 1012.9 0.0
19/05:00am 20.8 15.8 1.1 27 9.3 SSE 17 20 9 11 1016.6 1012.4 0.0
19/04:30am 21.1 15.6 0.9 26 9.5 SSE 19 22 10 12 1016.2 1012.0 0.0
19/04:00am 21.4 16.0 1.1 26 9.6 SSE 19 24 10 13 1016.0 1011.8 0.0
19/03:30am 21.7 16.0 0.8 25 9.8 SSE 20 24 11 13 1015.8 1011.6 0.0
19/03:00am 21.8 16.6 0.4 24 10.0 S 17 20 9 11 1015.7 1011.5 0.0
19/02:30am 22.3 16.7 0.2 23 10.3 SSE 19 26 10 14 1015.5 1011.4 0.0
19/02:00am 22.6 17.1 0.4 23 10.4 SSE 19 28 10 15 1015.5 1011.4 0.0
19/01:30am 22.7 17.5 -0.1 22 10.6 SSE 17 20 9 11 1015.7 1011.5 0.0
19/01:00am 23.3 18.1 -0.2 21 11.0 SSE 17 22 9 12 1015.5 1011.4 0.0
19/12:30am 23.9 18.2 -0.4 20 11.4 SSE 19 26 10 14 1015.9 1011.7 0.0
19/12:00am 24.3 18.4 -0.8 19 11.7 SSE 20 28 11 15 1016.2 1012.0 0.0
 
Date/Time
WST
Temp
°C
App
Temp
°C
Dew
Point
°C
Rel
Hum
%
Delta-T
°C
Wind Press
QNH
hPa
Press
MSL
hPa
Rain since
9am
mm
Dir  Spd
km/h
Gust
km/h
Spd
kts
Gust
kts
18/11:30pm 24.3 19.0 -0.8 19 11.7 SSE 17 22 9 12 1016.3 1012.1 0.0
18/11:00pm 24.9 19.5 -1.0 18 12.1 SSE 17 20 9 11 1016.6 1012.4 0.0
18/10:30pm 25.0 19.7 -0.9 18 12.1 S 17 20 9 11 1016.6 1012.4 0.0
18/10:00pm 25.0 19.9 -1.7 17 12.3 S 15 19 8 10 1016.6 1012.4 0.0
18/09:30pm 25.8 20.3 -1.9 16 12.8 S 17 20 9 11 1016.6 1012.4 0.0
18/09:00pm 26.6 21.1 -2.1 15 13.3 SSE 17 22 9 12 1016.5 1012.3 0.0
18/08:30pm 27.2 21.6 -2.6 14 13.7 SSE 17 26 9 14 1016.1 1011.9 0.0
18/08:00pm 27.2 22.7 -3.6 13 13.9 S 11 15 6 8 1015.8 1011.6 0.0
18/07:30pm 28.0 23.0 -4.0 12 14.5 S 13 17 7 9 1015.4 1011.3 0.0
18/07:00pm 29.0 23.2 -4.4 11 15.1 S 17 22 9 12 1015.0 1010.8 0.0
18/06:30pm 29.7 24.2 -5.1 10 15.6 S 15 20 8 11 1014.5 1010.3 0.0
18/06:00pm 31.0 25.1 -5.5 9 16.5 S 17 20 9 11 1014.0 1009.8 0.0
18/05:30pm 31.8 25.6 -4.9 9 16.8 S 19 26 10 14 1013.6 1009.4 0.0
18/05:00pm 32.3 25.9 -4.6 9 17.1 SSW 20 28 11 15 1013.2 1009.0 0.0
18/04:30pm 33.2 27.3 -5.5 8 17.8 S 17 30 9 16 1012.9 1008.7 0.0
18/04:00pm 33.0 26.5 -5.6 8 17.7 SSW 20 30 11 16 1012.7 1008.5 0.0
18/03:30pm 33.1 26.0 -4.0 9 17.4 SSW 24 35 13 19 1012.8 1008.6 0.0
18/03:00pm 32.9 26.9 -2.7 10 17.1 S 19 28 10 15 1012.8 1008.6 0.0
18/02:30pm 32.7 28.0 -1.6 11 16.7 SSW 13 26 7 14 1012.8 1008.6 0.0
18/02:00pm 33.1 28.1 -1.3 11 16.9 S 15 28 8 15 1013.0 1008.8 0.0
18/01:30pm 30.8 27.0 -0.8 13 15.4 SSW 9 26 5 14 1013.4 1009.2 0.0
18/01:00pm 31.3 26.8 -0.4 13 15.6 S 13 22 7 12 1014.0 1009.8 0.0
18/12:30pm 30.5 26.3 -1.0 13 15.3 SE 11 22 6 12 1014.3 1010.1 0.0
18/12:00pm 30.3 25.7 1.7 16 14.5 SE 15 28 8 15 1014.8 1010.6 0.0
18/11:30am 29.1 23.9 2.4 18 13.6 S 19 32 10 17 1015.1 1010.9 0.0
18/11:00am 28.4 22.7 2.6 19 13.1 S 22 35 12 19 1015.7 1011.5 0.0
18/10:30am 27.8 22.5 2.8 20 12.7 SSW 20 32 11 17 1016.0 1011.8 0.0
18/10:00am 27.0 20.5 2.8 21 12.3 S 26 37 14 20 1016.1 1011.9 0.0
18/09:30am 26.0 20.3 2.7 22 11.7 S 22 28 12 15 1016.6 1012.4 0.0
18/09:00am 25.2 19.9 3.2 24 11.1 S 20 33 11 18 1016.5 1012.3 0.0
18/08:30am 24.0 17.6 3.3 26 10.4 S 26 33 14 18 1016.5 1012.3 0.0
18/08:00am 22.9 16.5 3.4 28 9.7 S 26 37 14 20 1016.3 1012.1 0.0
18/07:30am 22.2 16.3 3.8 30 9.2 S 24 33 13 18 1016.2 1012.0 0.0
18/07:00am 21.1 14.7 3.3 31 8.7 S 26 35 14 19 1015.9 1011.7 0.0
18/06:30am 20.3 14.9 2.2 30 8.7 S 20 30 11 16 1015.4 1011.3 0.0
18/06:00am 19.7 14.8 2.1 31 8.4 S 17 24 9 13 1014.9 1010.7 0.0
18/05:30am 19.3 14.7 1.8 31 8.2 SSW 15 20 8 11 1014.5 1010.3 0.0
18/05:00am 19.8 14.8 1.3 29 8.7 S 17 24 9 13 1014.1 1009.9 0.0
18/04:30am 20.3 14.8 0.7 27 9.1 SSW 19 24 10 13 1014.0 1009.8 0.0
18/04:00am 20.7 15.1 0.0 25 9.5 S 19 26 10 14 1013.5 1009.3 0.0
18/03:30am 20.9 16.1 0.2 25 9.6 S 15 20 8 11 1013.0 1008.8 0.0
18/03:00am 21.7 15.5 -0.3 23 10.1 SSW 22 32 12 17 1012.8 1008.6 0.0
18/02:30am 22.1 16.4 -0.6 22 10.4 SSW 19 26 10 14 1012.8 1008.6 0.0
18/02:00am 22.6 17.7 -0.8 21 10.8 SSW 15 20 8 11 1012.8 1008.6 0.0
18/01:30am 23.4 17.1 -0.8 20 11.2 SSW 22 32 12 17 1012.8 1008.6 0.0
18/01:00am 24.2 18.5 0.5 21 11.3 SSW 20 28 11 15 1012.9 1008.7 0.0
18/12:30am 24.7 20.5 1.6 22 11.3 SW 13 19 7 10 1013.0 1008.8 0.0
18/12:00am 25.1 20.9 1.9 22 11.4 SW 13 17 7 9 1012.9 1008.7 0.0
 
Date/Time
WST
Temp
°C
App
Temp
°C
Dew
Point
°C
Rel
Hum
%
Delta-T
°C
Wind Press
QNH
hPa
Press
MSL
hPa
Rain since
9am
mm
Dir  Spd
km/h
Gust
km/h
Spd
kts
Gust
kts
17/11:30pm 25.6 21.4 1.7 21 11.8 SW 13 19 7 10 1013.2 1009.0 0.0
17/11:00pm 26.1 21.9 1.4 20 12.1 WSW 13 17 7 9 1013.3 1009.1 0.0
17/10:30pm 26.5 22.3 1.7 20 12.3 SW 13 19 7 10 1013.2 1009.0 0.0
17/10:00pm 26.9 21.5 1.3 19 12.6 WSW 19 24 10 13 1013.1 1008.9 0.0
17/09:30pm 27.5 21.9 1.1 18 13.0 SW 20 28 11 15 1012.9 1008.7 0.0
17/09:00pm 28.0 23.0 1.5 18 13.2 SW 17 26 9 14 1012.8 1008.6 0.0
17/08:30pm 28.5 24.0 1.9 18 13.4 SW 15 19 8 10 1012.4 1008.1 0.0
17/08:00pm 29.2 23.9 1.7 17 13.9 WSW 19 26 10 14 1012.0 1007.8 0.0
17/07:30pm 30.3 25.2 0.8 15 14.7 W 17 24 9 13 1011.4 1007.2 0.0
17/07:00pm 31.0 27.6 3.9 18 14.3 SW 11 17 6 9 1010.9 1006.6 0.0
17/06:30pm 32.1 26.8 3.1 16 15.2 NNW 20 33 11 18 1010.1 1005.9 0.0
17/06:00pm 32.7 27.9 4.5 17 15.2 NNW 19 33 10 18 1009.5 1005.2 0.0
17/05:30pm 33.4 28.5 5.0 17 15.5 NNW 20 32 11 17 1009.2 1004.9 0.0
17/05:00pm 33.9 28.7 5.4 17 15.7 NNW 22 37 12 20 1008.9 1004.6 0.0
17/04:45pm 33.7 27.5 6.1 18 15.3 NNW 28 44 15 24 1008.9 1004.6 0.0

Other Formats:

Comma delimited format used in spreadsheet applications
http://www.bom.gov.au/fwo/IDW60801/IDW60801.99313.axf

JavaScript Object Notation format (JSON) in row-major order
http://www.bom.gov.au/fwo/IDW60801/IDW60801.99313.json